createdAt,value
2023-02-22T00:02:32.480Z,29.75
2023-02-22T00:05:20.065Z,28.25
2023-02-22T00:08:09.187Z,33.40
2023-02-22T00:10:55.244Z,31.58
2023-02-22T00:13:44.769Z,30.38
2023-02-22T00:19:16.734Z,26.77
2023-02-22T00:22:02.364Z,28.25
2023-02-22T00:24:48.400Z,22.02
2023-02-22T00:27:33.792Z,31.23
2023-02-22T00:30:22.974Z,26.40
2023-02-22T00:33:08.398Z,32.35
2023-02-22T00:35:54.947Z,30.90
2023-02-22T00:38:41.751Z,29.05
2023-02-22T00:41:27.277Z,36.03
2023-02-22T00:44:19.818Z,25.35
2023-02-22T00:47:05.540Z,25.13
2023-02-22T00:49:50.993Z,23.45
2023-02-22T00:52:37.045Z,30.63
2023-02-22T00:55:28.476Z,21.85
2023-02-22T00:58:13.656Z,34.72
2023-02-22T01:00:59.088Z,28.88
2023-02-22T01:03:44.876Z,20.98
2023-02-22T01:06:30.281Z,28.58
2023-02-22T01:09:17.241Z,31.98
2023-02-22T01:12:02.406Z,22.83
2023-02-22T01:14:47.584Z,29.85
2023-02-22T01:17:32.956Z,20.25
2023-02-22T01:20:18.692Z,27.80
2023-02-22T01:23:08.034Z,30.83
2023-02-22T01:25:54.294Z,34.08
2023-02-22T01:28:39.656Z,24.08
2023-02-22T01:31:25.494Z,27.90
2023-02-22T01:34:12.788Z,24.33
2023-02-22T01:36:58.485Z,25.50
2023-02-22T01:39:43.844Z,29.08
2023-02-22T01:42:29.473Z,22.52
2023-02-22T01:45:40.106Z,30.15
2023-02-22T01:48:41.431Z,23.15
2023-02-22T01:51:38.929Z,21.02
2023-02-22T01:54:42.167Z,27.17
2023-02-22T01:57:37.490Z,29.90
2023-02-22T02:00:24.331Z,25.80
2023-02-22T02:03:18.058Z,24.10
2023-02-22T02:06:11.777Z,21.27
2023-02-22T02:09:15.001Z,23.45
2023-02-22T02:12:02.628Z,25.67
2023-02-22T02:14:50.997Z,34.20
2023-02-22T02:17:38.789Z,29.23
2023-02-22T02:20:37.175Z,32.13
2023-02-22T02:23:57.072Z,41.72
2023-02-22T02:26:59.288Z,27.92
2023-02-22T02:29:53.822Z,22.90
2023-02-22T02:32:49.782Z,37.45
2023-02-22T02:35:44.515Z,24.63
2023-02-22T02:38:58.015Z,30.83
2023-02-22T02:41:47.952Z,27.70
2023-02-22T02:44:41.089Z,31.55
2023-02-22T02:47:39.998Z,34.70
2023-02-22T02:50:33.427Z,30.95
2023-02-22T02:53:25.612Z,24.67
2023-02-22T02:56:11.562Z,29.23
2023-02-22T02:58:57.035Z,22.48
2023-02-22T03:02:08.306Z,28.60
2023-02-22T03:05:09.113Z,25.88
2023-02-22T03:08:00.494Z,23.95
2023-02-22T03:11:20.010Z,22.92
2023-02-22T03:14:42.041Z,25.02
2023-02-22T03:17:51.247Z,21.63
2023-02-22T03:20:48.204Z,23.73
2023-02-22T03:24:11.874Z,22.08
2023-02-22T03:27:03.260Z,29.15
2023-02-22T03:29:53.746Z,31.02
2023-02-22T03:32:42.584Z,20.38
2023-02-22T03:35:35.062Z,27.80
2023-02-22T03:38:21.326Z,18.35
2023-02-22T03:41:09.773Z,24.05
2023-02-22T03:44:06.610Z,27.33
2023-02-22T03:46:56.734Z,26.08
2023-02-22T03:49:55.618Z,33.67
2023-02-22T03:52:42.996Z,28.98
2023-02-22T03:55:33.430Z,29.95
2023-02-22T03:58:22.485Z,28.83
2023-02-22T04:01:07.996Z,19.55
2023-02-22T04:03:53.343Z,24.25
2023-02-22T04:06:39.562Z,19.83
2023-02-22T04:09:25.173Z,20.70
2023-02-22T04:12:10.425Z,30.13
2023-02-22T04:15:15.476Z,22.65
2023-02-22T04:18:01.349Z,24.13
2023-02-22T04:20:46.748Z,24.38
2023-02-22T04:23:40.487Z,25.15
2023-02-22T04:26:26.882Z,33.17
2023-02-22T04:29:17.170Z,22.60
2023-02-22T04:32:04.291Z,30.23
2023-02-22T04:34:50.107Z,21.67
2023-02-22T04:37:35.422Z,27.58
2023-02-22T04:40:23.922Z,27.23
2023-02-22T04:43:09.584Z,24.13
2023-02-22T04:45:55.278Z,23.67
2023-02-22T04:48:40.479Z,28.85
2023-02-22T04:51:26.199Z,25.50
2023-02-22T04:54:29.956Z,31.35
2023-02-22T04:57:15.400Z,30.40
2023-02-22T05:00:01.426Z,28.58
2023-02-22T05:02:50.790Z,27.77
2023-02-22T05:05:36.181Z,25.45
2023-02-22T05:08:21.659Z,24.08
2023-02-22T05:11:07.189Z,25.25
2023-02-22T05:13:52.632Z,26.85
2023-02-22T05:16:37.857Z,29.65
2023-02-22T05:19:23.452Z,27.15
2023-02-22T05:22:08.679Z,26.75
2023-02-22T05:24:54.005Z,26.83
2023-02-22T05:27:39.280Z,24.42
2023-02-22T05:30:28.464Z,35.08
2023-02-22T05:33:13.926Z,28.00
2023-02-22T05:35:59.107Z,36.47
2023-02-22T05:38:44.913Z,39.67
2023-02-22T05:41:30.237Z,33.58
2023-02-22T05:44:15.502Z,29.35
2023-02-22T05:47:00.688Z,23.08
2023-02-22T05:49:46.532Z,23.77
2023-02-22T05:52:31.826Z,30.10
2023-02-22T05:55:20.086Z,27.92
2023-02-22T05:58:05.908Z,41.47
2023-02-22T06:00:51.356Z,35.50
2023-02-22T06:03:36.497Z,32.75
2023-02-22T06:06:22.481Z,34.97
2023-02-22T06:09:07.955Z,27.17
2023-02-22T06:11:55.814Z,31.70
2023-02-22T06:14:45.791Z,27.90
2023-02-22T06:17:31.256Z,35.97
2023-02-22T06:20:19.297Z,33.35
2023-02-22T06:23:04.558Z,29.83
2023-02-22T06:25:49.733Z,30.98
2023-02-22T06:28:35.207Z,34.15
2023-02-22T06:31:20.606Z,33.15
2023-02-22T06:34:06.263Z,35.20
2023-02-22T06:36:51.668Z,28.48
2023-02-22T06:39:36.633Z,26.45
2023-02-22T06:42:21.987Z,30.35
2023-02-22T06:45:08.209Z,32.00
2023-02-22T06:47:53.606Z,35.95
2023-02-22T06:50:38.860Z,30.08
2023-02-22T06:53:24.156Z,29.13
2023-02-22T06:56:09.512Z,24.48
2023-02-22T06:58:54.699Z,28.73
2023-02-22T07:01:43.444Z,35.42
2023-02-22T07:04:28.561Z,28.27
2023-02-22T07:07:14.025Z,34.03
2023-02-22T07:09:59.189Z,32.50
2023-02-22T07:12:44.497Z,23.30
2023-02-22T07:15:31.300Z,30.38
2023-02-22T07:18:16.907Z,31.73
2023-02-22T07:21:02.250Z,38.40
2023-02-22T07:23:55.146Z,36.15
2023-02-22T07:26:41.946Z,28.52
2023-02-22T07:29:27.577Z,38.58
2023-02-22T07:32:12.766Z,24.65
2023-02-22T07:34:58.115Z,31.83
2023-02-22T07:37:43.869Z,32.28
2023-02-22T07:40:29.750Z,27.85
2023-02-22T07:43:19.095Z,30.02
2023-02-22T07:48:50.271Z,25.83
2023-02-22T07:51:35.625Z,38.38
2023-02-22T07:54:21.111Z,30.50
2023-02-22T07:57:06.522Z,35.03
2023-02-22T07:59:51.929Z,38.42
2023-02-22T08:02:37.151Z,39.88
2023-02-22T08:05:25.130Z,33.08
2023-02-22T08:08:11.580Z,41.40
2023-02-22T08:10:57.035Z,37.67
2023-02-22T08:13:42.314Z,29.90
2023-02-22T08:16:27.618Z,34.40
2023-02-22T08:19:12.878Z,34.30
2023-02-22T08:21:57.977Z,35.60
2023-02-22T08:24:43.436Z,41.72
2023-02-22T08:27:30.430Z,34.08
2023-02-22T08:30:19.783Z,39.03
2023-02-22T08:33:05.975Z,37.95
2023-02-22T08:35:51.982Z,33.95
2023-02-22T08:38:37.706Z,40.03
2023-02-22T08:41:23.494Z,42.83
2023-02-22T08:44:08.981Z,43.53
2023-02-22T08:46:55.118Z,30.23
2023-02-22T08:49:42.074Z,34.35
2023-02-22T08:52:28.324Z,32.17
2023-02-22T08:55:13.652Z,35.25
2023-02-22T08:58:01.332Z,32.72
2023-02-22T09:00:47.306Z,39.85
2023-02-22T09:03:40.057Z,28.05
2023-02-22T09:06:28.346Z,22.33
2023-02-22T09:09:21.480Z,38.85
2023-02-22T09:12:12.413Z,34.13
2023-02-22T09:14:59.401Z,29.83
2023-02-22T09:17:45.274Z,33.00
2023-02-22T09:20:36.254Z,30.52
2023-02-22T09:23:26.066Z,26.00
2023-02-22T09:26:16.102Z,31.10
2023-02-22T09:29:01.863Z,24.08
2023-02-22T09:31:47.474Z,27.48
2023-02-22T09:34:35.282Z,31.70
2023-02-22T09:37:20.799Z,20.55
2023-02-22T09:40:09.855Z,23.17
2023-02-22T09:43:01.159Z,29.17
2023-02-22T09:46:04.780Z,27.33
2023-02-22T09:49:07.691Z,33.85
2023-02-22T09:52:05.190Z,25.30
2023-02-22T09:54:57.965Z,23.95
2023-02-22T09:57:45.010Z,25.92
2023-02-22T10:00:37.874Z,30.45
2023-02-22T10:03:29.783Z,24.48
2023-02-22T10:06:21.141Z,31.85
2023-02-22T10:09:07.860Z,24.52
2023-02-22T10:12:01.310Z,34.03
2023-02-22T10:15:16.100Z,27.50
2023-02-22T10:18:15.226Z,32.13
2023-02-22T10:21:23.575Z,26.55
2023-02-22T10:24:39.596Z,33.83
2023-02-22T10:27:34.186Z,27.15
2023-02-22T10:30:26.801Z,31.67
2023-02-22T10:33:26.603Z,25.52
2023-02-22T10:36:20.049Z,33.35
2023-02-22T10:39:30.158Z,22.65
2023-02-22T10:45:01.263Z,21.70
2023-02-22T10:47:47.960Z,27.52
2023-02-22T10:50:34.682Z,24.88
2023-02-22T10:53:22.512Z,24.92
2023-02-22T10:56:09.148Z,25.20
2023-02-22T10:58:57.618Z,24.48
2023-02-22T11:01:43.011Z,25.48
2023-02-22T11:04:28.254Z,32.75
2023-02-22T11:07:24.671Z,23.23
2023-02-22T11:10:10.179Z,31.27
2023-02-22T11:12:55.533Z,24.35
2023-02-22T11:15:41.155Z,24.88
2023-02-22T11:18:34.914Z,23.60
2023-02-22T11:21:22.840Z,30.73
2023-02-22T11:24:14.187Z,29.00
2023-02-22T11:27:07.792Z,25.30
2023-02-22T11:29:53.403Z,23.35
2023-02-22T11:32:48.120Z,20.65
2023-02-22T11:35:52.696Z,24.05
2023-02-22T11:38:47.117Z,33.38
2023-02-22T11:41:34.272Z,27.30
2023-02-22T11:44:23.737Z,27.27
2023-02-22T11:47:12.115Z,30.38
2023-02-22T11:49:57.874Z,23.45
2023-02-22T11:52:50.340Z,22.80
2023-02-22T11:55:49.770Z,33.22
2023-02-22T11:58:56.482Z,30.00
2023-02-22T12:01:56.601Z,26.42
2023-02-22T12:04:55.483Z,30.55
2023-02-22T12:08:19.817Z,21.93
2023-02-22T12:11:20.213Z,23.42
2023-02-22T12:14:56.276Z,25.30
2023-02-22T12:17:59.293Z,18.75
2023-02-22T12:20:48.233Z,22.95
2023-02-22T12:23:40.622Z,22.98
2023-02-22T12:26:32.389Z,22.10
2023-02-22T12:29:55.405Z,20.63
2023-02-22T12:32:51.100Z,18.35
2023-02-22T12:35:46.609Z,22.48
2023-02-22T12:38:44.210Z,24.73
2023-02-22T12:41:39.513Z,23.23
2023-02-22T12:44:31.474Z,20.17
2023-02-22T12:47:22.807Z,25.20
2023-02-22T12:50:20.272Z,17.58
2023-02-22T12:53:19.779Z,22.88
2023-02-22T12:59:11.156Z,23.83
2023-02-22T13:02:22.418Z,21.08
2023-02-22T13:05:15.371Z,18.50
2023-02-22T13:08:25.211Z,25.88
2023-02-22T13:11:33.424Z,22.80
2023-02-22T13:14:34.125Z,20.05
2023-02-22T13:17:37.643Z,16.88
2023-02-22T13:20:32.113Z,21.50
2023-02-22T13:23:45.453Z,16.55
2023-02-22T13:26:42.327Z,15.23
2023-02-22T13:29:39.667Z,20.40
2023-02-22T13:33:09.951Z,18.52
2023-02-22T13:36:02.495Z,17.02
2023-02-22T13:39:33.926Z,17.33
2023-02-22T13:42:44.044Z,23.05
2023-02-22T13:46:07.181Z,22.50
2023-02-22T13:48:58.635Z,22.92
2023-02-22T13:51:47.804Z,20.63
2023-02-22T13:54:54.748Z,30.03
2023-02-22T13:57:48.620Z,22.73
2023-02-22T14:00:45.965Z,26.60
2023-02-22T14:03:42.370Z,17.73
2023-02-22T14:06:39.239Z,19.00
2023-02-22T14:09:48.059Z,17.88
2023-02-22T14:12:36.627Z,21.70
2023-02-22T14:15:31.215Z,25.58
2023-02-22T14:18:18.079Z,20.00
2023-02-22T14:21:20.309Z,21.35
2023-02-22T14:24:13.855Z,22.73
2023-02-22T14:27:03.544Z,15.32
2023-02-22T14:29:55.807Z,19.05
2023-02-22T14:32:40.962Z,22.02
2023-02-22T14:35:49.211Z,20.80
2023-02-22T14:38:35.636Z,20.25
2023-02-22T14:41:27.549Z,18.25
2023-02-22T14:44:15.614Z,17.65
2023-02-22T14:47:06.105Z,20.63
2023-02-22T14:49:55.068Z,28.20
2023-02-22T14:52:43.346Z,22.30
2023-02-22T14:55:31.772Z,22.83
2023-02-22T14:58:22.559Z,25.17
2023-02-22T15:01:47.413Z,25.90
2023-02-22T15:04:38.856Z,26.55
2023-02-22T15:07:30.523Z,28.63
2023-02-22T15:10:21.790Z,22.75
2023-02-22T15:13:19.838Z,16.58
2023-02-22T15:16:08.739Z,19.23
2023-02-22T15:18:57.324Z,31.27
2023-02-22T15:21:46.642Z,21.88
2023-02-22T15:24:34.710Z,15.32
2023-02-22T15:27:20.191Z,22.60
2023-02-22T15:30:27.244Z,22.40
2023-02-22T15:33:24.508Z,20.52
2023-02-22T15:36:15.721Z,17.20
2023-02-22T15:39:07.854Z,22.95
2023-02-22T15:42:20.764Z,17.85
2023-02-22T15:45:06.388Z,25.05
2023-02-22T15:47:54.588Z,21.95
2023-02-22T15:50:39.870Z,24.17
2023-02-22T15:53:28.333Z,23.23
2023-02-22T15:56:24.180Z,19.13
2023-02-22T15:59:14.276Z,26.42
2023-02-22T16:02:00.419Z,20.95
2023-02-22T16:04:58.163Z,17.08
2023-02-22T16:07:50.159Z,30.70
2023-02-22T16:10:35.408Z,30.45
2023-02-22T16:13:31.498Z,25.50
2023-02-22T16:16:20.716Z,23.58
2023-02-22T16:19:26.717Z,16.05
2023-02-22T16:22:35.004Z,22.27
2023-02-22T16:25:22.482Z,24.08
2023-02-22T16:28:32.444Z,18.25
2023-02-22T16:31:22.843Z,23.60
2023-02-22T16:34:09.097Z,26.17
2023-02-22T16:36:55.591Z,18.15
2023-02-22T16:39:41.821Z,25.17
2023-02-22T16:42:27.382Z,25.13
2023-02-22T16:45:16.464Z,17.08
2023-02-22T16:48:11.544Z,23.90
2023-02-22T16:51:00.865Z,24.20
2023-02-22T16:53:48.660Z,21.75
2023-02-22T16:56:35.284Z,25.80
2023-02-22T16:59:20.847Z,25.27
2023-02-22T17:02:10.357Z,25.92
2023-02-22T17:04:56.220Z,22.35
2023-02-22T17:07:42.161Z,23.58
2023-02-22T17:10:28.921Z,17.42
2023-02-22T17:13:23.044Z,21.50
2023-02-22T17:16:14.083Z,18.77
2023-02-22T17:18:59.260Z,19.08
2023-02-22T17:21:44.708Z,21.73
2023-02-22T17:24:30.114Z,25.02
2023-02-22T17:27:15.479Z,23.30
2023-02-22T17:30:00.636Z,27.58
2023-02-22T17:32:46.072Z,22.45
2023-02-22T17:35:36.490Z,21.08
2023-02-22T17:38:22.836Z,22.25
2023-02-22T17:41:08.107Z,22.75
2023-02-22T17:43:54.255Z,25.15
2023-02-22T17:46:42.483Z,19.17
2023-02-22T17:49:28.081Z,19.85
2023-02-22T17:52:15.768Z,23.60
2023-02-22T17:55:01.017Z,23.17
2023-02-22T17:57:47.301Z,13.07
2023-02-22T18:00:36.384Z,21.90
2023-02-22T18:03:24.993Z,18.03
2023-02-22T18:06:22.614Z,19.67
2023-02-22T18:09:17.645Z,23.85
2023-02-22T18:12:04.135Z,18.25
2023-02-22T18:14:49.645Z,17.95
2023-02-22T18:17:37.320Z,17.63
2023-02-22T18:20:38.014Z,14.10
2023-02-22T18:23:29.734Z,19.52
2023-02-22T18:26:20.005Z,17.80
2023-02-22T18:29:06.806Z,15.13
2023-02-22T18:31:53.553Z,20.40
2023-02-22T18:34:39.557Z,12.77
2023-02-22T18:37:28.187Z,18.55
2023-02-22T18:40:13.458Z,13.73
2023-02-22T18:42:58.602Z,18.17
2023-02-22T18:45:44.034Z,18.13
2023-02-22T18:48:29.618Z,18.85
2023-02-22T18:51:17.272Z,22.92
2023-02-22T18:54:02.499Z,17.58
2023-02-22T18:56:47.911Z,15.45
2023-02-22T18:59:33.684Z,20.65
2023-02-22T19:02:20.420Z,18.05
2023-02-22T19:05:06.400Z,10.02
2023-02-22T19:07:51.434Z,15.32
2023-02-22T19:10:38.624Z,21.85
2023-02-22T19:13:24.048Z,16.63
2023-02-22T19:16:09.886Z,11.27
2023-02-22T19:18:57.506Z,15.98
2023-02-22T19:21:43.276Z,14.05
2023-02-22T19:24:28.676Z,22.55
2023-02-22T19:27:14.352Z,17.67
2023-02-22T19:30:00.435Z,13.45
2023-02-22T19:32:47.507Z,14.43
2023-02-22T19:35:32.706Z,18.48
2023-02-22T19:38:18.120Z,14.27
2023-02-22T19:41:12.414Z,19.25
2023-02-22T19:43:58.578Z,15.20
2023-02-22T19:46:44.464Z,16.52
2023-02-22T19:49:30.218Z,22.63
2023-02-22T19:52:15.791Z,21.48
2023-02-22T19:55:01.487Z,19.55
2023-02-22T19:57:47.092Z,22.88
2023-02-22T20:00:35.492Z,14.52
2023-02-22T20:03:24.690Z,19.13
2023-02-22T20:06:11.253Z,14.68
2023-02-22T20:08:57.317Z,11.50
2023-02-22T20:11:42.896Z,16.13
2023-02-22T20:14:28.484Z,18.23
2023-02-22T20:17:14.126Z,13.73
2023-02-22T20:19:59.497Z,15.10
2023-02-22T20:22:54.314Z,15.65
2023-02-22T20:25:40.485Z,17.45
2023-02-22T20:28:25.796Z,24.75
2023-02-22T20:31:13.777Z,12.52
2023-02-22T20:34:00.617Z,18.35
2023-02-22T20:36:45.914Z,17.63
2023-02-22T20:39:31.690Z,17.92
2023-02-22T20:42:17.200Z,19.80
2023-02-22T20:45:05.793Z,15.90
2023-02-22T20:47:51.787Z,24.20
2023-02-22T20:50:37.043Z,21.83
2023-02-22T20:53:22.722Z,26.48
2023-02-22T20:56:13.643Z,15.20
2023-02-22T20:59:01.402Z,22.35
2023-02-22T21:01:49.997Z,22.63
2023-02-22T21:04:35.564Z,16.85
2023-02-22T21:07:22.308Z,31.60
2023-02-22T21:10:07.658Z,23.77
2023-02-22T21:12:53.968Z,18.17
2023-02-22T21:15:43.481Z,18.02
2023-02-22T21:18:29.007Z,26.10
2023-02-22T21:21:14.911Z,21.42
2023-02-22T21:24:03.302Z,24.38
2023-02-22T21:26:49.108Z,22.90
2023-02-22T21:29:35.461Z,23.35
2023-02-22T21:32:21.077Z,26.38
2023-02-22T21:35:06.907Z,23.20
2023-02-22T21:37:55.126Z,26.98
2023-02-22T21:40:41.839Z,21.75
2023-02-22T21:43:27.561Z,29.05
2023-02-22T21:46:12.806Z,22.63
2023-02-22T21:48:58.594Z,27.00
2023-02-22T21:51:44.805Z,21.33
2023-02-22T21:54:30.038Z,28.45
2023-02-22T21:57:15.486Z,29.52
2023-02-22T22:00:00.827Z,23.27
2023-02-22T22:02:47.992Z,30.42
2023-02-22T22:05:33.905Z,26.52
2023-02-22T22:08:19.513Z,30.27
2023-02-22T22:11:05.841Z,25.08
2023-02-22T22:13:53.645Z,31.25
2023-02-22T22:16:39.226Z,28.00
2023-02-22T22:19:29.422Z,30.23
2023-02-22T22:22:14.762Z,30.63
2023-02-22T22:25:00.119Z,26.75
2023-02-22T22:27:45.945Z,31.35
2023-02-22T22:30:31.533Z,26.27
2023-02-22T22:33:17.627Z,31.63
2023-02-22T22:36:04.550Z,32.65
2023-02-22T22:38:50.439Z,28.05
2023-02-22T22:41:35.842Z,25.27
2023-02-22T22:44:22.269Z,26.55
2023-02-22T22:47:14.043Z,30.88
2023-02-22T22:50:01.398Z,33.08
2023-02-22T22:52:47.102Z,31.45
2023-02-22T22:55:32.743Z,34.60
2023-02-22T22:58:18.108Z,30.40
2023-02-22T23:01:06.573Z,32.28
2023-02-22T23:04:01.333Z,29.95
2023-02-22T23:06:52.131Z,26.38
2023-02-22T23:09:39.321Z,29.52
2023-02-22T23:12:31.355Z,34.45
2023-02-22T23:15:18.100Z,30.80
2023-02-22T23:18:03.743Z,29.88
2023-02-22T23:20:54.963Z,33.65
2023-02-22T23:23:41.081Z,32.97
2023-02-22T23:26:26.991Z,38.78
2023-02-22T23:29:12.364Z,31.85
2023-02-22T23:31:58.621Z,37.30
2023-02-22T23:34:44.204Z,34.95
2023-02-22T23:37:35.254Z,38.78
2023-02-22T23:40:20.786Z,39.00
2023-02-22T23:43:07.623Z,39.33
2023-02-22T23:45:56.711Z,35.97
2023-02-22T23:48:46.579Z,36.65
2023-02-22T23:51:38.992Z,42.10
2023-02-22T23:54:24.375Z,38.33
2023-02-22T23:57:10.237Z,38.25
2023-02-22T23:59:56.076Z,36.92
